• Join FlightAware (Why Join?)
  • Login
  • US Flag 
03:10PM EDT


 

Airport Tracker/Info


-or-


 

Live Flight TrackerFlight Track Log ✈ SKW6492 ✈ 07-May-2013 ✈ KAUS - KDEN

Flight Track Log - Related Links

Times and Time Zones

All times are in EDT time to prevent confusion due to time zone crossing. See the SKW6492 flight status page for this flight to view local times or setup timezone preferences in your user account.

Time Position Orientation Groundspeed Altitude Reporting Facility
EDT Latitude Longitude Course Direction KTS MPH feet Rate Location/Type
04:13PM 30.1639 -97.7572 291° West 264 304 4,000  Level Houston Center
04:14PM 30.4478 -97.7562 293° West  Level FlightAware Approximate
04:14PM 30.2167 -97.8244 312° West 278 320 7,000  Level Houston Center
04:15PM 30.4919 -97.8778 293° West  Level FlightAware Approximate
04:15PM 30.2681 -97.9069 306° West 277 319 10,100  Level Houston Center
04:16PM 30.5336 -98.0006 291° West  Level FlightAware Approximate
04:16PM 30.3164 -97.9869 305° West 297 342 12,300  Level Houston Center
04:17PM 30.5747 -98.1237 291° West  Level FlightAware Approximate
04:17PM 30.3700 -98.0747 305° West 311 358 15,000  Level Houston Center
04:18PM 30.6156 -98.2469 291° West  Level FlightAware Approximate
04:18PM 30.4211 -98.1603 305° West 318 366 17,300  Level Houston Center
04:19PM 30.4733 -98.2469 305° West 323 372 19,100 1,680 Climbing Houston Center
04:20PM 30.5292 -98.3375 306° West 336 387 20,800 1,620 Climbing Houston Center
04:21PM 30.5861 -98.4328 305° West 351 404 22,500 1,740 Climbing Houston Center
04:22PM 30.6431 -98.5294 304° West 357 411 24,400 1,680 Climbing Houston Center
04:23PM 30.7008 -98.6244 305° West 357 411 26,100 1,380 Climbing Houston Center
04:24PM 30.7592 -98.7228 305° West 363 418 27,300 1,320 Climbing Houston Center
04:25PM 30.8461 -98.8178 317° Northwest 368 423 28,900 1,200 Climbing Houston Center
04:26PM 30.9428 -98.8775 332° Northwest 384 442 29,900 960 Climbing Houston Center
04:27PM 31.0403 -98.9397 331° Northwest 390 449 31,000 900 Climbing Houston Center
04:28PM 31.1378 -99.0006 332° Northwest 394 453 31,800 960 Climbing Houston Center
04:29PM 31.2369 -99.0633 332° Northwest 399 459 33,000 1,020 Climbing Houston Center
04:30PM 31.3356 -99.1244 332° Northwest 398 458 34,000 960 Climbing Houston Center
04:31PM 31.4511 -99.1983 331° Northwest 385 443 35,100 840 Climbing Fort Worth Center
04:32PM 31.5461 -99.2611 331° Northwest 385 443 35,900 420 Climbing Fort Worth Center
04:33PM 31.6433 -99.3242 331° Northwest 390 449 36,000  Climbing Fort Worth Center
04:34PM 31.7428 -99.3872 332° Northwest 395 455 36,000  Level Fort Worth Center
04:35PM 31.8419 -99.4506 332° Northwest 395 455 36,000 480 Level Fort Worth Center
04:36PM 31.9389 -99.5114 332° Northwest 395 455 37,000 960 Climbing Fort Worth Center
04:37PM 32.0319 -99.5722 331° Northwest 389 448 38,000 480 Climbing Fort Worth Center
04:38PM 32.1289 -99.6336 332° Northwest 384 442 38,000  Level Fort Worth Center
04:39PM 32.2258 -99.6972 331° Northwest 389 448 38,000  Level Fort Worth Center
04:40PM 32.3250 -99.7611 331° Northwest 389 448 38,000  Level Fort Worth Center
04:41PM 32.4258 -99.8278 331° Northwest 396 456 38,000  Level Fort Worth Center
04:42PM 32.5269 -99.8944 331° Northwest 407 468 38,000  Level Fort Worth Center
04:43PM 32.6342 -99.9542 335° Northwest 421 484 38,000  Level Fort Worth Center
04:44PM 32.7289 -100.0211 329° Northwest 421 484 38,000  Level Fort Worth Center
04:45PM 32.8297 -100.0883 331° Northwest 427 491 38,000  Level Fort Worth Center
04:46PM 32.9347 -100.1558 332° Northwest 422 486 38,000  Level Fort Worth Center
04:47PM 33.0336 -100.2183 332° Northwest 412 474 38,000  Level Fort Worth Center
04:48PM 33.1303 -100.2833 331° Northwest 407 468 38,000  Level Fort Worth Center
04:49PM 33.2311 -100.3489 331° Northwest 407 468 38,000  Level Fort Worth Center
04:50PM 33.3275 -100.4142 331° Northwest 407 468 38,000  Level Fort Worth Center
04:51PM 33.4261 -100.4772 332° Northwest 402 463 38,000  Level Fort Worth Center
04:52PM 33.5247 -100.5406 332° Northwest 402 463 38,000  Level Fort Worth Center
04:53PM 33.6233 -100.6039 332° Northwest 402 463 38,000  Level Fort Worth Center
04:54PM 33.7219 -100.6700 331° Northwest 397 457 38,000  Level Fort Worth Center
04:55PM 33.8203 -100.7361 331° Northwest 403 464 38,000  Level Fort Worth Center
04:56PM 33.9208 -100.8000 332° Northwest 403 464 38,000  Level Fort Worth Center
04:57PM 34.0189 -100.8739 328° Northwest 409 471 38,000  Level Fort Worth Center
04:58PM 34.1297 -100.9461 332° Northwest 409 471 38,000  Level Fort Worth Center
05:01PM 34.3542 -101.0928 332° Northwest 421 484 38,000  Level Albuquerque Center
05:02PM 34.4786 -101.1769 331° Northwest 425 489 38,000  Level Albuquerque Center
05:03PM 34.5833 -101.2408 333° Northwest 425 489 38,000  Level Albuquerque Center
05:04PM 34.6950 -101.2956 338° Northwest 430 495 38,000  Level Albuquerque Center
05:05PM 34.8042 -101.3522 337° Northwest 428 493 38,000  Level Albuquerque Center
05:06PM 34.9156 -101.4089 337° Northwest 432 497 38,000  Level Albuquerque Center
05:07PM 35.0333 -101.4675 338° Northwest 437 503 38,000  Level Albuquerque Center
05:08PM 35.1458 -101.5253 337° Northwest 437 503 38,000  Level Albuquerque Center
05:09PM 35.2783 -101.5931 337° Northwest 437 503 38,000  Level Albuquerque Center
05:10PM 35.3897 -101.6506 337° Northwest 434 499 38,000  Level Albuquerque Center
05:11PM 35.5044 -101.7094 337° Northwest 440 506 38,000  Level Albuquerque Center
05:12PM 35.6222 -101.7708 337° Northwest 435 501 38,000  Level Albuquerque Center
05:13PM 35.7331 -101.8289 337° Northwest 435 501 38,000  Level Albuquerque Center
05:14PM 35.8447 -101.8872 337° Northwest 436 502 38,000  Level Albuquerque Center
05:15PM 35.9575 -101.9456 337° Northwest 438 504 38,000  Level Albuquerque Center
05:16PM 36.0689 -102.0047 337° Northwest 437 503 38,000  Level Albuquerque Center
05:17PM 36.1814 -102.0628 337° Northwest 437 503 38,000  Level Albuquerque Center
05:18PM 36.3164 -102.1336 337° Northwest 439 505 38,000  Level Albuquerque Center
05:19PM 36.4275 -102.1928 337° Northwest 436 502 38,000  Level Albuquerque Center
05:20PM 36.5392 -102.2508 337° Northwest 436 502 38,000  Level Albuquerque Center
05:21PM 36.6511 -102.3100 337° Northwest 437 503 38,000  Level Albuquerque Center
05:22PM 36.7619 -102.3697 337° Northwest 435 501 38,000 -240 Level Albuquerque Center
05:23PM 36.8894 -102.4386 337° Northwest 437 503 37,600 -720 Descending Albuquerque Center
05:24PM 37.0042 -102.5006 337° Northwest 440 506 36,600 -780 Descending Albuquerque Center
05:25PM 37.1058 -102.5544 337° Northwest 441 507 36,000 -300 Descending Albuquerque Center
05:26PM 37.2297 -102.6214 337° Northwest 436 502 36,000  Level Albuquerque Center
05:27PM 37.3364 -102.6797 337° Northwest 436 502 36,000  Level Albuquerque Center
05:29PM 37.4631 -102.7481 337° Northwest 442 509 36,000  Level Albuquerque Center
05:30PM 37.5692 -102.8028 338° Northwest 435 501 36,000  Level Albuquerque Center
05:31PM 37.6844 -102.8889 329° Northwest 434 499 36,000  Level Albuquerque Center
05:32PM 37.7819 -102.9644 329° Northwest 431 496 36,000  Level Albuquerque Center
05:33PM 37.8972 -103.0506 329° Northwest 432 497 36,000  Level Denver Center
05:34PM 37.9947 -103.1261 329° Northwest 431 496 36,000 -600 Level Denver Center
05:35PM 38.1094 -103.2061 331° Northwest 423 487 34,800 -1,200 Descending Denver Center
05:36PM 38.2158 -103.2503 342° North 423 487 33,600 -1,260 Descending Denver Center
05:37PM 38.3364 -103.2997 342° North 429 494 32,200 -1,440 Descending Denver Center
05:38PM 38.4669 -103.3536 342° North 439 505 30,700 -1,080 Descending Denver Center
05:39PM 38.5786 -103.4011 342° North 456 525 30,000 -360 Descending Denver Center
05:40PM 38.7042 -103.4517 343° North 457 526 30,000 -660 Level Denver Center
05:41PM 38.8367 -103.5086 341° North 451 519 28,700 -1,800 Descending Denver Center
05:42PM 38.9522 -103.5572 342° North 423 487 26,400 -2,160 Descending Denver Center
05:43PM 39.0569 -103.5997 343° North 395 455 24,300 -1,980 Descending Denver Center
05:44PM 39.1575 -103.6439 341° North 382 440 22,400 -1,800 Descending Denver Center
05:45PM 39.2564 -103.6853 342° North 372 428 20,600 -1,620 Descending Denver Center
05:46PM 39.3211 -103.7758 313° West 349 402 19,100 -1,260 Descending Denver Center
05:47PM 39.3672 -103.8694 303° West 317 365 18,100 -1,020 Descending Denver Center
05:48PM 39.4164 -103.9772 301° West 306 352 17,000 -1,080 Descending Denver Center
05:49PM 39.4325 -104.0811 281° West 296 341 15,900 -1,260 Descending Denver Center
05:50PM 39.4367 -104.1833 273° West 287 330 14,500 -1,380 Descending Denver Center
05:51PM 39.4400 -104.2950 272° West 286 329 13,100 -900 Descending Denver Center
05:52PM 39.4553 -104.3839 283° West 259 298 12,700 -780 Descending Denver Center
05:53PM 39.5069 -104.4553 313° West 254 292 11,600 -1,020 Descending Denver Center
05:54PM 39.5608 -104.5119 321° Northwest 255 293 10,600 -1,200 Descending Denver Center
05:55PM 39.6314 -104.5514 337° Northwest 259 298 9,200 -1,380 Descending Denver Center